Saturday, August 18, 2018, 1:53 PM EDT
Back to Local

KNUI, Knui Webster Field Annex

Location: Saint Inigoes, MD, United States Lat: 38.15
Local Time: 1:53 PM EDT (17:53 GMT) Lon: -76.417
Time Zone: US/Eastern Elev: 19 ft

Show me the last for .
Show Decoded

2018-08-18 12:53 METAR KNUI 181653Z AUTO 26005KT 10SM CLR 29/23 A2989 RMK AO2 SLP121 T02940233 =
2018-08-18 11:53 METAR KNUI 181553Z AUTO 24008KT 10SM CLR 29/23 A2990 RMK AO2 SLP125 T02890233 =
2018-08-18 10:53 METAR KNUI 181453Z AUTO 25008KT 10SM CLR 28/23 A2992 RMK AO2 SLP130 T02830233
                 56003 =
2018-08-18 09:53 METAR KNUI 181353Z AUTO 26007KT 10SM CLR 28/23 A2992 RMK AO2 SLP131 T02780233 =
2018-08-18 08:53 METAR KNUI 181253Z AUTO 24007KT 10SM CLR 26/23 A2992 RMK AO2 SLP131 T02610228 =
2018-08-18 07:53 METAR KNUI 181153Z AUTO 23009KT 10SM CLR 26/23 A2993 RMK AO2 SLP134 T02610228
                 10278 20261 50004 =
2018-08-18 06:53 METAR KNUI 181053Z AUTO 24008KT 10SM CLR 26/23 A2993 RMK AO2 SLP134 T02610228 =
2018-08-18 05:53 METAR KNUI 180953Z AUTO 24010KT 10SM CLR 27/23 A2992 RMK AO2 SLP131 T02670228 =
2018-08-18 04:53 METAR KNUI 180853Z AUTO 23012KT 10SM CLR 27/23 A2992 RMK AO2 SLP130 T02720228
                 56014 =
2018-08-18 03:53 METAR KNUI 180753Z AUTO 20008KT 10SM CLR 27/23 A2993 RMK AO2 SLP133 T02720233 =
2018-08-18 02:53 METAR KNUI 180653Z AUTO 20008KT 10SM CLR 27/23 A2994 RMK AO2 SLP137 T02720233 =
2018-08-18 01:53 METAR KNUI 180553Z AUTO 22008KT 10SM CLR 28/23 A2996 RMK AO2 SLP143 T02780233
                 10300 20278 50001 =
2018-08-18 00:53 METAR KNUI 180453Z AUTO 22010KT 10SM CLR 28/24 A2996 RMK AO2 SLP146 T02830239
                 403330244 =
2018-08-17 23:53 METAR KNUI 180353Z AUTO 21008KT 10SM CLR 28/24 A2996 RMK AO2 SLP144 T02830244 =
2018-08-17 22:53 METAR KNUI 180253Z AUTO 19010KT 10SM CLR 29/24 A2995 RMK AO2 SLP142 T02890244
                 58002 =
2018-08-17 21:53 METAR KNUI 180153Z AUTO 19008KT 10SM CLR 29/24 A2997 RMK AO2 SLP146 T02890244 =
2018-08-17 20:53 METAR KNUI 180053Z AUTO 19007KT 10SM CLR 29/24 A2996 RMK AO2 SLP143 T02940244 =
2018-08-17 19:53 METAR KNUI 172353Z AUTO 18006KT 9SM CLR 30/25 A2996 RMK AO2 SLP145 T03000250
                 10333 20300 58007 =
2018-08-17 18:53 METAR KNUI 172253Z AUTO 18005KT 9SM CLR 31/24 A2997 RMK AO2 SLP148 T03060244 =
2018-08-17 17:53 METAR KNUI 172153Z AUTO 19005KT 9SM CLR 31/24 A2997 RMK AO2 SLP149 T03110244 =
2018-08-17 16:53 METAR KNUI 172053Z AUTO 18010KT 10SM CLR 33/24 A2998 RMK AO2 SLP151 T03280239
                 56017 =
2018-08-17 15:53 METAR KNUI 171953Z AUTO VRB06KT 10SM CLR 33/23 A3000 RMK AO2 SLP156 T03330233 =
2018-08-17 14:53 METAR KNUI 171853Z AUTO 17009KT 10SM CLR 33/22 A3001 RMK AO2 SLP162 T03280222 =

Support USWX by starting your Amazon purchase here.